Time;durP1;ratioP1;P1;durP2;ratioP2;P2;SDS_P1;SDS_P2;PMS_P1;PMS_P2;Temp;Humidity;BMP_temperature;BMP_pressure;BME280_temperature;BME280_humidity;BME280_pressure;Samples;Min_cycle;Max_cycle;Signal;HPM_P1;HPM_P2
2021/07/03 00:00:15;;;;;;;10.88;3.67;;;;;;;21.08;72.85;99241.55;1736623;82;21144;-58
2021/07/03 00:02:42;;;;;;;7.37;4.07;;;;;;;21.05;72.87;99241.61;1736106;82;21030;-57
2021/07/03 00:05:10;;;;;;;5.35;3.10;;;;;;;21.06;72.93;99245.16;1734968;82;20979;-56
2021/07/03 00:07:36;;;;;;;;;;;;;;;21.06;72.94;99243.23;1738861;82;21497;-56
2021/07/03 00:10:04;;;;;;;8.45;3.50;;;;;;;21.09;72.80;99243.96;1736493;82;20081;-55
2021/07/03 00:12:31;;;;;;;15.83;5.00;;;;;;;21.10;72.80;99248.30;1733618;82;21144;-55
2021/07/03 00:14:59;;;;;;;11.20;5.33;;;;;;;21.12;72.75;99245.26;1736670;82;21527;-56
2021/07/03 00:17:26;;;;;;;16.62;7.15;;;;;;;21.11;72.55;99252.64;1736629;82;21406;-55
2021/07/03 00:19:54;;;;;;;16.00;6.97;;;;;;;21.09;72.34;99252.13;1736216;82;20980;-56
2021/07/03 00:22:20;;;;;;;25.00;8.18;;;;;;;21.06;72.35;99251.97;1743085;81;20892;-56
2021/07/03 00:24:48;;;;;;;13.80;6.57;;;;;;;21.06;72.29;99258.22;1747069;81;21166;-55
2021/07/03 00:27:14;;;;;;;17.12;6.40;;;;;;;21.06;72.14;99262.30;1746905;82;20970;-57
2021/07/03 00:29:41;;;;;;;16.70;6.28;;;;;;;21.06;71.97;99251.97;1747169;82;20975;-56
2021/07/03 00:32:08;;;;;;;20.40;6.72;;;;;;;;;;1743910;82;20988;-57
2021/07/03 00:34:34;;;;;;;18.85;6.60;;;;;;;20.98;71.64;99248.11;1746831;82;21074;-57
2021/07/03 00:37:03;;;;;;;19.07;6.22;;;;;;;20.95;71.62;99254.16;1747261;81;20875;-56
2021/07/03 00:39:30;;;;;;;12.70;5.97;;;;;;;20.92;71.58;99250.70;1747217;81;20951;-56
2021/07/03 00:41:57;;;;;;;13.38;6.03;;;;;;;20.90;71.59;99252.95;1746916;81;21525;-57
2021/07/03 00:44:30;;;;;;;15.20;6.08;;;;;;;20.86;71.83;99252.75;1747047;82;20891;-57
2021/07/03 00:46:56;;;;;;;19.07;7.15;;;;;;;20.82;71.81;99252.59;1746223;82;21046;-57
2021/07/03 00:49:24;;;;;;;22.67;7.25;;;;;;;20.79;71.82;99252.43;1747299;82;21082;-57
2021/07/03 00:51:51;;;;;;;17.12;6.42;;;;;;;20.74;71.79;99253.34;1716036;82;21011;-57
2021/07/03 00:54:20;;;;;;;18.37;6.67;;;;;;;20.68;71.81;99248.36;1747096;82;20974;-57
2021/07/03 00:56:48;;;;;;;21.73;8.10;;;;;;;20.63;72.04;99245.19;1746916;82;20986;-57
2021/07/03 00:59:15;;;;;;;12.70;5.80;;;;;;;20.58;72.14;99247.49;1746967;81;21457;-56
2021/07/03 01:01:43;;;;;;;14.55;5.95;;;;;;;20.53;72.25;99253.05;1744224;82;21359;-57
2021/07/03 01:04:10;;;;;;;14.45;5.60;;;;;;;20.46;72.40;99247.24;1746974;82;20959;-57
2021/07/03 01:06:36;;;;;;;10.20;5.33;;;;;;;20.42;72.50;99240.81;1746366;82;21076;-56
2021/07/03 01:09:04;;;;;;;8.80;4.87;;;;;;;20.39;72.42;99244.98;1747316;82;21410;-57
2021/07/03 01:11:31;;;;;;;11.38;4.50;;;;;;;20.34;72.35;99243.73;1740523;81;21027;-57
2021/07/03 01:13:58;;;;;;;10.50;4.62;;;;;;;20.31;72.33;99240.27;1747235;82;21775;-57
2021/07/03 01:16:25;;;;;;;10.10;4.35;;;;;;;20.28;72.27;99232.16;1715358;82;20955;-56
2021/07/03 01:18:53;;;;;;;8.50;4.22;;;;;;;20.29;72.26;99226.98;1746988;81;20979;-56
2021/07/03 01:21:20;;;;;;;8.53;4.62;;;;;;;20.28;72.14;99228.08;1745801;81;20935;-56
2021/07/03 01:23:47;;;;;;;10.45;4.42;;;;;;;20.28;72.04;99232.16;1736401;82;21035;-55
2021/07/03 01:26:15;;;;;;;7.97;4.15;;;;;;;20.30;71.99;99240.02;1736438;82;22340;-55
2021/07/03 01:28:42;;;;;;;9.63;4.12;;;;;;;20.31;71.90;99241.63;1736314;82;20963;-56
2021/07/03 01:31:10;;;;;;;8.47;4.57;;;;;;;20.30;71.68;99235.94;1737128;82;20982;-56
2021/07/03 01:33:37;;;;;;;7.83;4.05;;;;;;;20.27;71.49;99240.64;1736350;82;21062;-55
2021/07/03 01:36:04;;;;;;;13.80;4.40;;;;;;;20.23;71.46;99235.56;1706222;82;21685;-56
2021/07/03 01:38:32;;;;;;;16.57;4.45;;;;;;;20.20;71.56;99236.19;1734047;82;21976;-56
2021/07/03 01:41:03;;;;;;;12.15;4.25;;;;;;;20.17;71.64;99230.83;1736389;82;21041;-56
2021/07/03 01:43:31;;;;;;;;;;;;;;;20.17;71.65;99236.81;1739136;81;21521;-57
2021/07/03 01:46:00;;;;;;;9.48;4.20;;;;;;;20.18;71.59;99235.13;1736540;82;20097;-57
2021/07/03 01:48:31;;;;;;;14.87;3.70;;;;;;;20.20;71.37;99237.01;1736087;82;20928;-56
2021/07/03 01:50:58;;;;;;;9.20;3.98;;;;;;;20.23;71.29;99239.11;1698560;82;21183;-57
2021/07/03 01:53:25;;;;;;;7.33;3.50;;;;;;;20.26;71.04;99239.84;1734639;82;21042;-58
2021/07/03 01:55:54;;;;;;;6.53;4.22;;;;;;;20.30;70.91;99240.84;1736192;82;20987;-56
2021/07/03 01:58:24;;;;;;;7.80;3.80;;;;;;;20.33;70.69;99238.03;1736394;82;20951;-56
2021/07/03 02:00:55;;;;;;;9.33;3.37;;;;;;;20.37;70.56;99239.59;1733125;82;21015;-57
2021/07/03 02:03:23;;;;;;;13.15;4.25;;;;;;;20.37;70.38;99235.51;1734065;82;21316;-57
2021/07/03 02:05:52;;;;;;;7.12;4.03;;;;;;;20.38;70.29;99239.84;1736189;82;20932;-56
2021/07/03 02:08:20;;;;;;;9.05;4.10;;;;;;;20.38;70.09;99239.28;1731606;82;21006;-57
2021/07/03 02:10:50;;;;;;;14.68;5.42;;;;;;;20.40;70.05;99241.12;1735817;82;21043;-57
2021/07/03 02:13:16;;;;;;;8.45;4.60;;;;;;;20.42;70.08;99237.55;1733555;82;21000;-57
2021/07/03 02:15:44;;;;;;;6.12;3.95;;;;;;;20.43;69.87;99236.98;1734929;82;21073;-59
2021/07/03 02:18:14;;;;;;;7.40;3.77;;;;;;;20.45;69.72;99236.92;1734718;82;21529;-57
2021/07/03 02:20:42;;;;;;;9.20;3.98;;;;;;;20.47;69.55;99243.41;1737067;82;25070;-57
2021/07/03 02:23:10;;;;;;;;;;;;;;;20.47;69.42;99244.20;1746682;81;20975;-58
2021/07/03 02:25:40;;;;;;;7.80;3.72;;;;;;;20.48;69.23;99241.73;1746749;81;20133;-57
2021/07/03 02:28:08;;;;;;;8.25;4.05;;;;;;;20.47;69.13;99236.61;1746498;82;21131;-56
2021/07/03 02:30:36;;;;;;;7.20;3.70;;;;;;;20.50;69.02;99235.98;1743798;82;28114;-57
2021/07/03 02:33:04;;;;;;;8.33;4.25;;;;;;;20.54;68.90;99234.25;1716332;82;21042;-57
2021/07/03 02:35:32;;;;;;;6.55;3.83;;;;;;;20.57;68.80;99235.55;1747154;81;21499;-57
2021/07/03 02:37:59;;;;;;;8.25;3.90;;;;;;;20.59;68.49;99242.84;1747145;81;21003;-57
2021/07/03 02:40:27;;;;;;;11.05;4.33;;;;;;;20.60;68.40;99234.36;1746980;82;21123;-57
2021/07/03 02:42:55;;;;;;;7.55;3.67;;;;;;;20.62;68.39;99236.77;1747391;82;20919;-57
2021/07/03 02:45:23;;;;;;;7.33;3.98;;;;;;;20.67;68.39;99237.22;1746840;82;20959;-58
2021/07/03 02:47:50;;;;;;;12.47;4.20;;;;;;;20.74;68.27;99240.30;1747535;81;21010;-58
2021/07/03 02:50:19;;;;;;;9.83;4.20;;;;;;;20.80;68.06;99239.04;1747216;81;20974;-58
2021/07/03 02:52:47;;;;;;;10.15;4.42;;;;;;;20.85;67.94;99243.00;1737182;82;21063;-58
2021/07/03 02:55:14;;;;;;;7.67;4.20;;;;;;;20.91;67.81;99247.75;1746430;82;21009;-58
2021/07/03 02:57:41;;;;;;;7.95;3.98;;;;;;;20.97;67.70;99249.22;1746885;82;20884;-57
2021/07/03 03:00:12;;;;;;;6.08;3.85;;;;;;;;;;1744223;82;21017;-57
2021/07/03 03:02:40;;;;;;;11.85;4.78;;;;;;;21.09;67.55;99257.58;1746861;82;21013;-56
2021/07/03 03:05:12;;;;;;;9.80;4.55;;;;;;;21.17;67.40;99258.19;1746932;81;21124;-55
2021/07/03 03:07:40;;;;;;;8.45;4.58;;;;;;;21.23;67.25;99260.20;1746948;82;21464;-56
2021/07/03 03:10:11;;;;;;;11.08;4.28;;;;;;;21.28;67.24;99258.69;1747104;82;21019;-56
2021/07/03 03:12:40;;;;;;;9.98;3.87;;;;;;;21.33;67.04;99259.91;1744722;82;20895;-58
2021/07/03 03:15:09;;;;;;;7.05;3.77;;;;;;;21.39;66.80;99257.82;1747048;81;20990;-57
2021/07/03 03:17:38;;;;;;;13.62;4.60;;;;;;;21.43;66.67;99258.00;1708947;82;21071;-57
2021/07/03 03:20:06;;;;;;;14.30;4.70;;;;;;;21.47;66.67;99261.70;1747022;82;21056;-57
2021/07/03 03:22:34;;;;;;;10.40;4.78;;;;;;;21.51;66.48;99259.42;1746568;81;33512;-57
2021/07/03 03:25:02;;;;;;;7.50;3.98;;;;;;;21.52;66.32;99256.94;1746750;82;20888;-57
2021/07/03 03:27:29;;;;;;;7.37;4.03;;;;;;;21.55;66.13;99261.50;1744294;82;21030;-56
2021/07/03 03:29:56;;;;;;;10.70;4.33;;;;;;;21.57;65.86;99260.07;1747083;82;21153;-57
2021/07/03 03:32:23;;;;;;;9.20;4.55;;;;;;;21.62;65.73;99263.20;1746267;82;20868;-56
2021/07/03 03:34:50;;;;;;;11.18;4.45;;;;;;;21.67;65.68;99261.13;1747036;81;21390;-57
2021/07/03 03:37:16;;;;;;;5.97;3.98;;;;;;;21.76;65.45;99264.41;1747084;81;21088;-58
2021/07/03 03:39:43;;;;;;;7.25;4.00;;;;;;;22.01;64.98;99269.09;1746903;81;20910;-57
2021/07/03 03:42:10;;;;;;;11.05;4.17;;;;;;;22.53;63.81;99261.42;1747150;80;21124;-57
2021/07/03 03:44:37;;;;;;;17.48;8.33;;;;;;;23.36;61.46;99266.75;1746793;82;21568;-56
2021/07/03 03:47:04;;;;;;;18.48;10.43;;;;;;;24.09;59.07;99262.89;1740577;81;21038;-56
2021/07/03 03:49:33;;;;;;;22.17;13.40;;;;;;;24.81;56.83;99260.72;1747338;82;21470;-56
2021/07/03 03:52:01;;;;;;;23.35;13.05;;;;;;;25.43;55.16;99264.88;1746818;82;21473;-57
2021/07/03 03:54:28;;;;;;;26.12;15.48;;;;;;;25.68;53.93;99271.70;1746970;82;21785;-57
2021/07/03 03:59:41;;;;;;;28.47;12.07;;;;;;;26.07;53.11;99263.83;1745359;82;21442;-58
2021/07/03 04:02:08;;;;;;;41.45;13.75;;;;;;;26.05;52.79;99266.92;1742209;82;21022;-56
2021/07/03 04:04:35;;;;;;;45.85;13.50;;;;;;;26.05;52.56;99255.15;1715816;82;20876;-57
2021/07/03 04:07:03;;;;;;;46.13;12.88;;;;;;;26.14;52.31;99257.16;1746875;81;21089;-57
2021/07/03 04:09:29;;;;;;;47.80;14.90;;;;;;;26.43;51.61;99251.64;1745434;82;20978;-57
2021/07/03 04:11:57;;;;;;;63.13;17.15;;;;;;;26.90;50.90;99246.23;1746660;81;21058;-56
2021/07/03 04:14:24;;;;;;;37.58;12.73;;;;;;;27.48;49.63;99242.67;1747180;81;20939;-57
2021/07/03 04:16:52;;;;;;;;;;;;;;;27.98;48.24;99242.38;1749431;81;21030;-57
2021/07/03 04:19:18;;;;;;;35.55;12.50;;;;;;;28.46;47.33;99242.89;1747121;82;21158;-58
2021/07/03 04:21:46;;;;;;;45.12;14.47;;;;;;;29.01;46.38;99237.73;1746725;82;21046;-58
2021/07/03 04:24:12;;;;;;;44.23;14.10;;;;;;;29.53;44.65;99242.25;1746836;81;21533;-56
2021/07/03 04:26:39;;;;;;;32.48;11.53;;;;;;;29.84;44.00;99236.17;1746835;82;20983;-57
2021/07/03 04:29:06;;;;;;;26.07;9.83;;;;;;;30.09;43.00;99232.32;1744340;81;20939;-58
2021/07/03 04:31:34;;;;;;;31.40;11.68;;;;;;;30.19;42.54;99235.79;1746251;82;21177;-57
2021/07/03 04:34:01;;;;;;;32.48;12.58;;;;;;;30.38;42.30;99228.49;1747314;82;21274;-57
2021/07/03 04:36:28;;;;;;;24.95;11.03;;;;;;;30.63;41.56;99230.73;1747354;81;21552;-57
2021/07/03 04:38:54;;;;;;;26.00;10.95;;;;;;;30.83;41.19;99234.86;1747237;82;20935;-57
2021/07/03 04:41:21;;;;;;;36.60;12.98;;;;;;;31.16;40.88;99226.22;1745445;82;20963;-57
2021/07/03 04:43:47;;;;;;;29.23;12.50;;;;;;;31.56;40.11;99226.48;1746993;82;22049;-57
2021/07/03 04:46:14;;;;;;;31.10;13.22;;;;;;;31.89;39.87;99226.02;1747197;82;20934;-58
2021/07/03 04:48:41;;;;;;;37.58;14.63;;;;;;;32.39;39.21;99220.65;1747163;81;20951;-58
2021/07/03 04:51:08;;;;;;;31.00;13.18;;;;;;;32.83;38.16;99225.06;1747096;82;20951;-58
2021/07/03 04:53:34;;;;;;;38.17;14.23;;;;;;;33.24;37.14;99223.83;1745950;82;21441;-58
2021/07/03 04:56:01;;;;;;;30.53;13.70;;;;;;;33.60;36.38;99212.63;1747259;81;21150;-54
2021/07/03 04:58:28;;;;;;;31.87;12.45;;;;;;;33.80;37.29;99218.52;1747418;81;21433;-56
2021/07/03 05:00:55;;;;;;;24.80;10.95;;;;;;;34.09;36.46;99218.98;1746986;81;20959;-57
2021/07/03 05:03:21;;;;;;;23.77;11.45;;;;;;;34.48;36.52;99217.95;1746564;82;20938;-56
2021/07/03 05:05:48;;;;;;;25.20;11.03;;;;;;;34.98;35.27;99211.20;1747248;81;20969;-55
2021/07/03 05:08:14;;;;;;;22.67;10.55;;;;;;;35.47;34.70;99210.53;1747319;82;21098;-57
2021/07/03 05:10:43;;;;;;;17.95;9.63;;;;;;;35.93;33.28;99209.78;1745759;82;21449;-56
2021/07/03 05:13:09;;;;;;;32.90;13.22;;;;;;;36.30;32.06;99212.26;1747275;82;21025;-55
2021/07/03 05:15:36;;;;;;;25.65;11.30;;;;;;;36.49;32.11;99217.75;1744925;80;20986;-56
2021/07/03 05:18:04;;;;;;;29.18;11.15;;;;;;;36.75;32.65;99215.32;1747194;80;20982;-57
2021/07/03 05:20:34;;;;;;;39.75;14.25;;;;;;;37.11;32.06;99220.31;1746941;82;21149;-56
2021/07/03 05:23:00;;;;;;;44.13;16.30;;;;;;;37.47;30.81;99213.47;1743370;81;21355;-56
2021/07/03 05:25:27;;;;;;;39.90;15.13;;;;;;;37.54;30.61;99217.33;1736378;82;21013;-55
2021/07/03 05:27:54;;;;;;;39.38;14.80;;;;;;;37.39;30.00;99221.02;1735927;82;20940;-56
2021/07/03 05:30:20;;;;;;;50.00;15.68;;;;;;;37.08;31.32;99212.17;1736913;82;21038;-55
2021/07/03 05:32:47;;;;;;;45.52;17.20;;;;;;;37.04;31.35;99216.25;1736588;82;21049;-55
2021/07/03 05:35:15;;;;;;;32.50;13.35;;;;;;;37.18;31.20;99204.83;1733345;82;20864;-55
2021/07/03 05:37:43;;;;;;;29.50;12.40;;;;;;;37.43;30.60;99216.16;1736274;82;21434;-56
2021/07/03 05:40:12;;;;;;;26.30;11.90;;;;;;;37.45;30.40;99214.48;1736190;82;21493;-56
2021/07/03 05:42:39;;;;;;;24.85;9.75;;;;;;;37.16;30.44;99217.83;1733687;82;21055;-56
2021/07/03 05:45:07;;;;;;;21.95;10.35;;;;;;;36.66;31.28;99207.48;1736425;82;21227;-57
2021/07/03 05:47:34;;;;;;;16.60;9.58;;;;;;;36.30;32.03;99214.44;1736228;82;21500;-55
2021/07/03 05:50:00;;;;;;;23.42;10.50;;;;;;;35.96;32.44;99211.72;1736659;82;20936;-55
2021/07/03 05:52:27;;;;;;;20.40;9.33;;;;;;;35.73;33.10;99211.78;1736447;82;21002;-55
2021/07/03 05:54:53;;;;;;;20.23;9.05;;;;;;;35.81;33.44;99209.73;1736711;82;20983;-55
2021/07/03 05:57:20;;;;;;;22.05;9.35;;;;;;;35.88;33.14;99213.83;1731767;82;21092;-55
2021/07/03 05:59:48;;;;;;;21.23;9.38;;;;;;;35.75;32.91;99210.77;1735995;81;20880;-57
2021/07/03 06:02:14;;;;;;;18.12;8.88;;;;;;;35.44;34.00;99218.33;1736005;82;20852;-55
2021/07/03 06:04:41;;;;;;;17.17;9.77;;;;;;;35.16;34.75;99216.59;1736694;82;21751;-55
2021/07/03 06:07:08;;;;;;;21.10;9.00;;;;;;;34.91;35.98;99217.03;1735913;82;20982;-55
2021/07/03 06:09:35;;;;;;;22.60;10.28;;;;;;;34.68;36.31;99214.03;1736605;82;22005;-55
2021/07/03 06:12:01;;;;;;;17.07;9.00;;;;;;;34.43;36.34;99213.62;1736088;82;20959;-56
2021/07/03 06:14:28;;;;;;;23.17;9.97;;;;;;;34.14;36.59;99215.77;1734399;81;20991;-55
2021/07/03 06:16:54;;;;;;;21.12;10.18;;;;;;;33.88;37.57;99216.52;1734261;82;21012;-55
2021/07/03 06:19:21;;;;;;;19.42;10.82;;;;;;;33.66;37.53;99215.19;1736294;82;21536;-56
2021/07/03 06:21:48;;;;;;;28.25;11.65;;;;;;;33.37;37.59;99212.31;1736667;82;21123;-56
2021/07/03 06:24:15;;;;;;;26.10;12.20;;;;;;;33.01;39.54;99219.48;1736242;81;21022;-55
2021/07/03 06:26:42;;;;;;;29.70;13.00;;;;;;;32.86;39.73;99217.12;1735751;82;21427;-55
2021/07/03 06:29:09;;;;;;;33.60;14.47;;;;;;;32.69;39.99;99219.51;1736184;82;22012;-55
2021/07/03 06:31:36;;;;;;;28.52;14.13;;;;;;;32.59;39.87;99229.97;1736428;82;21062;-56
2021/07/03 06:34:02;;;;;;;25.02;11.38;;;;;;;32.35;40.11;99230.94;1736161;82;21190;-56
2021/07/03 06:36:30;;;;;;;17.55;9.80;;;;;;;32.13;40.27;99225.34;1734159;82;21510;-56
2021/07/03 06:38:57;;;;;;;17.62;9.38;;;;;;;31.90;40.55;99227.61;1736203;82;20931;-56
2021/07/03 06:41:23;;;;;;;20.05;9.03;;;;;;;31.70;41.15;99231.28;1736060;82;21010;-54
2021/07/03 06:43:50;;;;;;;20.43;9.83;;;;;;;31.56;41.47;99227.27;1735988;82;20987;-56
2021/07/03 06:46:16;;;;;;;18.82;9.20;;;;;;;31.46;41.22;99226.59;1736345;82;21081;-55
2021/07/03 06:48:43;;;;;;;18.60;9.85;;;;;;;31.33;41.27;99225.33;1736193;82;20943;-54
2021/07/03 06:51:10;;;;;;;17.98;10.23;;;;;;;31.10;42.62;99231.92;1736251;82;20994;-55
2021/07/03 06:53:36;;;;;;;21.17;9.50;;;;;;;31.03;42.13;99234.03;1733245;82;21045;-55
2021/07/03 06:56:04;;;;;;;16.23;8.90;;;;;;;30.78;42.65;99235.80;1729963;82;21007;-55
2021/07/03 06:58:30;;;;;;;17.92;9.75;;;;;;;30.70;42.62;99234.34;1733166;82;21793;-56
2021/07/03 07:00:57;;;;;;;29.42;10.03;;;;;;;30.68;42.59;99231.75;1734922;80;21851;-55
2021/07/03 07:03:23;;;;;;;18.00;9.33;;;;;;;30.66;43.19;99231.34;1746612;81;20928;-55
2021/07/03 07:05:52;;;;;;;16.00;9.48;;;;;;;30.66;42.99;99233.52;1736138;82;20924;-56
2021/07/03 07:08:18;;;;;;;17.02;10.13;;;;;;;30.54;43.60;99233.21;1736796;82;20991;-56
2021/07/03 07:10:46;;;;;;;;;;;;;;;30.34;44.35;99234.56;1738921;82;21162;-56
2021/07/03 07:13:14;;;;;;;15.30;8.63;;;;;;;30.20;44.11;99226.93;1736135;82;20088;-55
2021/07/03 07:15:42;;;;;;;16.35;8.35;;;;;;;29.85;44.42;99232.25;1735470;82;20912;-57
2021/07/03 07:18:08;;;;;;;16.93;8.88;;;;;;;29.31;45.86;99237.84;1735593;82;20872;-57
2021/07/03 07:20:35;;;;;;;15.45;7.22;;;;;;;29.02;46.03;99239.34;1735830;82;21007;-57
2021/07/03 07:23:01;;;;;;;14.13;7.55;;;;;;;28.84;46.51;99241.78;1736549;82;22397;-55
2021/07/03 07:25:28;;;;;;;14.47;7.12;;;;;;;28.67;46.58;99230.69;1736043;82;21086;-55
2021/07/03 07:27:55;;;;;;;8.13;5.78;;;;;;;28.53;47.58;99233.94;1736188;82;20990;-55
2021/07/03 07:30:21;;;;;;;10.95;6.20;;;;;;;28.48;46.51;99235.64;1736268;82;21545;-56
2021/07/03 07:32:48;;;;;;;13.22;6.92;;;;;;;28.24;47.52;99229.31;1732751;82;21045;-56
2021/07/03 07:35:15;;;;;;;12.65;6.67;;;;;;;28.21;48.62;99219.58;1736058;82;21122;-56
2021/07/03 07:37:43;;;;;;;13.15;6.22;;;;;;;28.40;48.86;99222.32;1736247;82;20932;-55
2021/07/03 07:40:12;;;;;;;17.90;6.95;;;;;;;28.71;48.21;99229.35;1735200;82;20938;-58
2021/07/03 07:42:39;;;;;;;14.53;6.33;;;;;;;28.84;46.45;99240.41;1736301;82;21047;-56
2021/07/03 07:45:09;;;;;;;13.28;7.08;;;;;;;28.81;46.46;99235.06;1736445;82;20955;-55
2021/07/03 07:47:35;;;;;;;13.72;5.95;;;;;;;28.79;46.39;99243.48;1736098;82;21131;-57
2021/07/03 07:50:05;;;;;;;12.95;5.83;;;;;;;28.74;46.65;99242.40;1736081;82;20971;-56
2021/07/03 07:52:32;;;;;;;14.93;6.62;;;;;;;28.82;47.68;99239.98;1736236;82;20978;-57
2021/07/03 07:54:59;;;;;;;14.00;6.77;;;;;;;28.96;46.26;99232.52;1736741;82;21043;-55
2021/07/03 07:57:27;;;;;;;15.07;7.30;;;;;;;28.90;46.57;99239.52;1735531;82;21375;-56
2021/07/03 07:59:55;;;;;;;11.25;7.15;;;;;;;28.86;46.70;99244.98;1736059;82;20983;-57
2021/07/03 08:02:22;;;;;;;9.58;6.03;;;;;;;28.87;47.38;99258.18;1736464;82;21438;-56
2021/07/03 08:04:48;;;;;;;14.20;7.10;;;;;;;28.87;47.68;99254.05;1736626;82;21021;-55
2021/07/03 08:07:15;;;;;;;11.55;7.03;;;;;;;28.87;47.45;99258.97;1736471;82;20980;-55
2021/07/03 08:09:44;;;;;;;9.88;6.30;;;;;;;28.79;47.53;99258.05;1736659;82;20995;-55
2021/07/03 08:12:12;;;;;;;12.75;7.20;;;;;;;28.68;48.45;99254.34;1734897;82;20971;-55
2021/07/03 08:14:39;;;;;;;12.65;7.33;;;;;;;28.77;48.48;99259.58;1736534;82;20939;-55
2021/07/03 08:17:06;;;;;;;14.07;8.63;;;;;;;28.78;48.62;99266.70;1736213;82;21485;-54
2021/07/03 08:19:34;;;;;;;14.63;8.15;;;;;;;28.76;47.87;99267.66;1736439;82;20994;-56
2021/07/03 08:22:01;;;;;;;;;;;;;;;28.65;48.09;99269.64;1739027;82;20990;-57
2021/07/03 08:24:28;;;;;;;11.68;7.05;;;;;;;28.54;48.23;99274.72;1736619;81;21161;-56
2021/07/03 08:26:54;;;;;;;16.70;9.03;;;;;;;28.32;48.55;99275.09;1734946;82;20974;-55
2021/07/03 08:29:21;;;;;;;13.08;8.40;;;;;;;28.18;48.78;99274.84;1736624;82;20983;-55
2021/07/03 08:31:47;;;;;;;14.87;8.30;;;;;;;28.13;49.41;99270.40;1736451;82;21496;-56
2021/07/03 08:34:14;;;;;;;9.58;7.12;;;;;;;28.19;49.44;99267.37;1736434;82;21014;-57
2021/07/03 08:36:40;;;;;;;11.70;6.42;;;;;;;28.26;48.72;99273.02;1736457;82;21910;-56
2021/07/03 08:39:07;;;;;;;10.03;6.08;;;;;;;28.12;49.48;99276.27;1736509;82;20978;-55
2021/07/03 08:41:34;;;;;;;10.05;6.67;;;;;;;28.09;49.62;99265.42;1736627;81;21006;-55
2021/07/03 08:44:00;;;;;;;12.98;7.28;;;;;;;28.12;49.23;99268.01;1735859;81;21102;-55
2021/07/03 08:46:27;;;;;;;12.40;7.10;;;;;;;28.04;49.60;99262.95;1736613;82;20983;-55
2021/07/03 08:48:55;;;;;;;12.05;7.83;;;;;;;28.07;50.18;99260.84;1736311;82;21116;-56
2021/07/03 08:51:22;;;;;;;12.68;7.83;;;;;;;28.19;49.80;99251.63;1736499;82;21019;-56
2021/07/03 08:53:50;;;;;;;12.75;8.10;;;;;;;28.18;49.58;99259.70;1736646;82;20927;-55
2021/07/03 08:56:16;;;;;;;13.35;7.67;;;;;;;28.18;49.81;99260.25;1736613;82;21398;-57
2021/07/03 08:58:43;;;;;;;10.93;7.53;;;;;;;28.14;49.75;99255.47;1736377;82;21125;-55
2021/07/03 09:01:09;;;;;;;12.30;8.08;;;;;;;28.20;49.58;99256.58;1736465;82;21529;-56
2021/07/03 09:03:36;;;;;;;17.20;7.47;;;;;;;28.19;50.01;99249.46;1736283;82;20960;-56
2021/07/03 09:06:06;;;;;;;12.82;8.13;;;;;;;28.30;50.50;99251.84;1740384;81;20988;-56
2021/07/03 09:08:33;;;;;;;10.82;7.15;;;;;;;28.46;49.89;99256.67;1737417;81;21012;-55
2021/07/03 09:11:09;;;;;;;12.03;6.72;;;;;;;28.49;49.79;99248.27;1736384;82;21856;-56
2021/07/03 09:13:38;;;;;;;9.15;7.00;;;;;;;28.56;50.15;99251.12;1737322;81;21166;-56
2021/07/03 09:16:05;;;;;;;15.75;8.98;;;;;;;28.73;49.40;99260.13;1733305;82;20868;-56
2021/07/03 09:18:34;;;;;;;17.32;8.55;;;;;;;28.76;48.35;99255.25;1735274;82;20880;-57
2021/07/03 09:21:03;;;;;;;11.25;8.00;;;;;;;28.68;48.60;99248.02;1736362;82;21492;-56
2021/07/03 09:23:35;;;;;;;11.63;7.55;;;;;;;28.54;48.71;99248.54;1736084;82;21011;-55
2021/07/03 09:26:07;;;;;;;16.10;6.97;;;;;;;28.29;49.43;99246.12;1735519;82;21141;-58
2021/07/03 09:28:41;;;;;;;9.83;7.50;;;;;;;28.21;49.90;99237.48;1746740;82;20824;-55
2021/07/03 09:31:09;;;;;;;12.10;7.75;;;;;;;28.22;50.22;99241.84;1745341;80;20970;-57
2021/07/03 09:33:41;;;;;;;13.10;7.42;;;;;;;28.24;50.12;99235.38;1746638;82;20999;-57
2021/07/03 09:36:12;;;;;;;10.35;7.65;;;;;;;28.28;50.09;99232.11;1746594;82;20974;-58
2021/07/03 09:38:49;;;;;;;11.83;7.62;;;;;;;28.32;49.49;99232.98;1743432;82;21125;-56
2021/07/03 09:41:24;;;;;;;11.97;7.50;;;;;;;28.28;50.14;99237.63;1735860;82;20955;-56
2021/07/03 09:43:56;;;;;;;12.98;7.37;;;;;;;28.22;50.30;99244.01;1742987;82;21064;-55
2021/07/03 09:46:27;;;;;;;9.53;7.65;;;;;;;28.22;49.67;99239.09;1734708;82;21039;-56
2021/07/03 09:49:06;;;;;;;12.82;8.00;;;;;;;28.19;50.59;99239.82;1738339;82;21473;-57
2021/07/03 09:51:37;;;;;;;9.55;6.78;;;;;;;28.10;50.22;99231.19;1740049;82;20928;-54
2021/07/03 09:54:05;;;;;;;10.28;6.97;;;;;;;28.06;50.57;99229.53;1741025;82;20896;-58
2021/07/03 09:56:32;;;;;;;9.50;7.20;;;;;;;28.10;50.83;99227.66;1731763;82;20965;-60
2021/07/03 09:58:58;;;;;;;12.80;7.80;;;;;;;28.13;50.79;99230.46;1739209;82;20999;-59
2021/07/03 10:01:25;;;;;;;9.60;5.72;;;;;;;28.13;51.19;99233.81;1746890;82;21491;-60
2021/07/03 10:03:52;;;;;;;17.32;6.00;;;;;;;28.11;48.48;99228.66;1739294;80;21869;-59
2021/07/03 10:06:27;;;;;;;7.87;4.92;;;;;;;28.03;49.00;99229.67;1737516;82;21553;-60
2021/07/03 10:08:58;;;;;;;8.48;5.45;;;;;;;27.98;48.82;99230.57;1733972;82;20987;-60
2021/07/03 10:11:25;;;;;;;14.78;5.97;;;;;;;27.90;48.26;99224.89;1744571;82;21010;-59
2021/07/03 10:14:03;;;;;;;11.95;6.15;;;;;;;27.84;48.38;99231.84;1714057;82;21053;-60
2021/07/03 10:16:31;;;;;;;9.65;6.28;;;;;;;27.85;49.35;99236.77;1739706;81;21149;-59
2021/07/03 10:19:10;;;;;;;12.65;6.33;;;;;;;27.87;50.17;99220.67;1742814;82;20955;-60
2021/07/03 10:21:37;;;;;;;14.03;7.42;;;;;;;27.89;50.31;99219.75;1740351;82;20939;-60
2021/07/03 10:24:18;;;;;;;7.78;6.28;;;;;;;27.83;50.08;99234.38;1743927;82;21052;-60
2021/07/03 10:26:45;;;;;;;11.50;6.33;;;;;;;27.69;50.45;99229.94;1736950;81;21018;-59
2021/07/03 10:29:17;;;;;;;9.67;6.57;;;;;;;27.65;50.90;99228.50;1729922;82;21326;-59
2021/07/03 10:31:45;;;;;;;14.03;6.78;;;;;;;27.68;50.70;99211.83;1730881;82;21438;-61
2021/07/03 10:34:12;;;;;;;10.45;7.30;;;;;;;27.65;51.47;99213.92;1731572;82;20987;-61
2021/07/03 10:36:39;;;;;;;10.33;6.80;;;;;;;27.65;52.23;99212.55;1731459;82;21034;-59
2021/07/03 10:39:07;;;;;;;14.03;7.20;;;;;;;27.65;52.01;99211.17;1726349;82;20932;-60
2021/07/03 10:41:35;;;;;;;10.58;7.62;;;;;;;27.55;52.45;99209.22;1728000;82;21152;-60
2021/07/03 10:44:13;;;;;;;15.93;8.05;;;;;;;27.50;53.28;99212.83;1732886;82;21078;-59
2021/07/03 10:46:48;;;;;;;9.33;7.87;;;;;;;27.38;53.58;99215.13;1730630;82;21153;-60
2021/07/03 10:49:20;;;;;;;11.00;8.18;;;;;;;27.21;54.03;99212.97;1732248;82;21549;-62
2021/07/03 10:51:51;;;;;;;11.10;8.05;;;;;;;27.14;54.14;99207.30;1727094;82;20967;-61
2021/07/03 10:54:27;;;;;;;10.95;6.78;;;;;;;27.14;54.45;99217.52;1730516;82;21230;-61
2021/07/03 10:57:01;;;;;;;11.12;7.47;;;;;;;27.10;54.26;99213.30;1714365;82;20982;-59
2021/07/03 10:59:29;;;;;;;13.15;7.83;;;;;;;27.07;54.58;99218.13;1732443;82;21019;-61
2021/07/03 11:02:16;;;;;;;9.30;7.08;;;;;;;27.06;55.06;99215.16;1736476;82;21086;-59
2021/07/03 11:04:49;;;;;;;11.08;7.20;;;;;;;27.06;54.28;99206.34;1735956;82;21051;-60
2021/07/03 11:07:20;;;;;;;11.20;7.55;;;;;;;27.07;54.73;99207.14;1735479;82;21184;-59
2021/07/03 11:09:48;;;;;;;10.05;6.65;;;;;;;27.05;55.07;99199.83;1735433;82;20864;-61
2021/07/03 11:12:19;;;;;;;10.70;7.87;;;;;;;27.08;54.24;99208.73;1736614;82;20920;-61
2021/07/03 11:14:51;;;;;;;12.50;7.67;;;;;;;27.08;55.07;99204.03;1736079;82;20895;-58
2021/07/03 11:17:19;;;;;;;13.28;7.53;;;;;;;27.03;55.06;99205.69;1736426;82;20931;-61
2021/07/03 11:19:49;;;;;;;9.23;7.45;;;;;;;26.92;55.53;99201.30;1736152;82;21976;-61
2021/07/03 11:22:15;;;;;;;10.95;7.33;;;;;;;26.91;56.16;99202.47;1732686;82;20940;-62
2021/07/03 11:24:49;;;;;;;14.15;7.80;;;;;;;26.90;56.40;99202.23;1736642;82;21461;-59
2021/07/03 11:27:35;;;;;;;12.55;6.78;;;;;;;26.97;56.55;99206.30;1734854;81;20939;-59
2021/07/03 11:30:06;;;;;;;11.95;8.10;;;;;;;27.07;55.68;99198.89;1736452;82;20978;-62
2021/07/03 11:32:33;;;;;;;11.75;7.28;;;;;;;27.12;55.86;99194.50;1715734;82;21161;-62